createdAt,value
2019-05-07T00:01:55.144Z,7.93
2019-05-07T00:04:23.315Z,9.93
2019-05-07T00:06:56.722Z,11.03
2019-05-07T00:09:25.581Z,8.70
2019-05-07T00:11:54.525Z,9.73
2019-05-07T00:14:23.616Z,9.70
2019-05-07T00:16:53.803Z,9.50
2019-05-07T00:19:23.185Z,12.43
2019-05-07T00:21:52.803Z,9.93
2019-05-07T00:24:22.407Z,10.43
2019-05-07T00:26:53.268Z,10.48
2019-05-07T00:29:22.503Z,9.87
2019-05-07T00:31:55.032Z,9.90
2019-05-07T00:34:27.311Z,8.90
2019-05-07T00:37:22.056Z,10.17
2019-05-07T00:40:22.646Z,12.03
2019-05-07T00:43:32.093Z,11.30
2019-05-07T00:46:13.623Z,9.10
2019-05-07T00:48:45.105Z,10.87
2019-05-07T00:51:42.562Z,10.82
2019-05-07T00:54:12.271Z,9.93
2019-05-07T00:56:42.884Z,8.67
2019-05-07T00:59:13.122Z,9.10
2019-05-07T01:01:43.273Z,8.37
2019-05-07T01:04:12.593Z,9.80
2019-05-07T01:06:42.364Z,10.40
2019-05-07T01:09:12.273Z,8.43
2019-05-07T01:11:43.745Z,12.70
2019-05-07T01:14:12.576Z,12.93
2019-05-07T01:16:42.080Z,12.30
2019-05-07T01:19:12.523Z,12.30
2019-05-07T01:21:43.277Z,10.40
2019-05-07T01:24:12.392Z,12.53
2019-05-07T01:26:44.136Z,10.65
2019-05-07T01:29:13.050Z,11.73
2019-05-07T01:31:52.534Z,10.27
2019-05-07T01:34:39.296Z,9.30
2019-05-07T01:37:09.682Z,10.03
2019-05-07T01:39:38.567Z,9.40
2019-05-07T01:42:07.449Z,9.33
2019-05-07T01:44:36.323Z,10.13
2019-05-07T01:47:05.227Z,12.18
2019-05-07T01:49:34.021Z,8.93
2019-05-07T01:52:04.473Z,9.55
2019-05-07T01:54:33.646Z,11.37
2019-05-07T01:57:03.012Z,12.43
2019-05-07T01:59:34.182Z,11.30
2019-05-07T02:02:12.163Z,12.15
2019-05-07T02:04:47.615Z,8.40
2019-05-07T02:07:27.500Z,7.53
2019-05-07T02:10:11.951Z,8.40
2019-05-07T02:12:42.546Z,9.03
2019-05-07T02:15:12.083Z,6.57
2019-05-07T02:17:43.025Z,13.80
2019-05-07T02:20:15.581Z,9.50
2019-05-07T02:22:44.400Z,11.27
2019-05-07T02:25:13.760Z,9.90
2019-05-07T02:27:42.556Z,9.03
2019-05-07T02:30:14.723Z,10.03
2019-05-07T02:32:43.271Z,8.23
2019-05-07T02:35:13.786Z,9.60
2019-05-07T02:37:56.178Z,9.75
2019-05-07T02:40:45.152Z,9.97
2019-05-07T02:43:14.276Z,9.83
2019-05-07T02:46:27.487Z,9.05
2019-05-07T02:49:05.083Z,11.20
2019-05-07T02:51:43.547Z,13.30
2019-05-07T02:54:24.459Z,10.43
2019-05-07T02:56:53.550Z,9.43
2019-05-07T02:59:23.265Z,9.50
2019-05-07T03:01:53.932Z,10.00
2019-05-07T03:04:25.053Z,9.63
2019-05-07T03:06:55.473Z,10.73
2019-05-07T03:09:24.296Z,8.97
2019-05-07T03:11:53.256Z,9.73
2019-05-07T03:14:23.633Z,10.47
2019-05-07T03:16:53.695Z,9.70
2019-05-07T03:19:25.120Z,10.57
2019-05-07T03:21:54.667Z,9.07
2019-05-07T03:24:39.727Z,7.78
2019-05-07T03:27:13.806Z,14.23
2019-05-07T03:29:45.212Z,10.37
2019-05-07T03:32:37.853Z,8.70
2019-05-07T03:35:28.824Z,10.73
2019-05-07T03:37:58.271Z,8.93
2019-05-07T03:40:32.785Z,9.25
2019-05-07T03:43:01.926Z,10.20
2019-05-07T03:45:43.200Z,10.63
2019-05-07T03:48:19.313Z,7.13
2019-05-07T03:50:48.236Z,10.20
2019-05-07T03:53:17.199Z,10.00
2019-05-07T03:55:45.992Z,8.93
2019-05-07T03:58:15.049Z,10.70
2019-05-07T04:00:46.912Z,9.70
2019-05-07T04:03:19.415Z,13.07
2019-05-07T04:05:46.393Z,11.70
2019-05-07T04:08:15.388Z,11.13
2019-05-07T04:10:45.520Z,9.33
2019-05-07T04:13:18.733Z,10.30
2019-05-07T04:15:48.457Z,13.40
2019-05-07T04:18:17.460Z,9.83
2019-05-07T04:20:46.363Z,17.70
2019-05-07T04:23:15.272Z,18.90
2019-05-07T04:26:04.223Z,10.77
2019-05-07T04:28:55.880Z,11.83
2019-05-07T04:31:26.462Z,9.43
2019-05-07T04:33:57.063Z,10.10
2019-05-07T04:36:35.106Z,10.55
2019-05-07T04:39:05.062Z,11.90
2019-05-07T04:41:33.889Z,14.00
2019-05-07T04:44:03.927Z,11.17
2019-05-07T04:46:34.952Z,10.93
2019-05-07T04:49:04.224Z,7.87
2019-05-07T04:51:55.083Z,10.53
2019-05-07T04:54:23.896Z,15.85
2019-05-07T04:56:53.285Z,13.93
2019-05-07T04:59:23.844Z,11.33
2019-05-07T05:01:59.530Z,12.07
2019-05-07T05:04:31.538Z,13.50
2019-05-07T05:07:02.589Z,14.93
2019-05-07T05:09:29.583Z,12.60
2019-05-07T05:11:58.927Z,10.23
2019-05-07T05:14:27.818Z,13.40
2019-05-07T05:16:57.790Z,13.13
2019-05-07T05:19:26.689Z,14.23
2019-05-07T05:22:12.802Z,12.70
2019-05-07T05:24:45.516Z,10.53
2019-05-07T05:27:16.223Z,10.97
2019-05-07T05:29:49.335Z,10.53
2019-05-07T05:32:18.162Z,11.40
2019-05-07T05:34:56.834Z,12.80
2019-05-07T05:37:35.358Z,9.67
2019-05-07T05:40:08.831Z,10.18
2019-05-07T05:42:45.243Z,9.80
2019-05-07T05:45:33.897Z,13.80
2019-05-07T05:48:08.410Z,11.70
2019-05-07T05:50:53.749Z,9.80
2019-05-07T05:53:32.666Z,8.20
2019-05-07T05:56:05.430Z,10.87
2019-05-07T05:58:53.323Z,10.67
2019-05-07T06:01:32.392Z,12.88
2019-05-07T06:04:13.697Z,10.37
2019-05-07T06:07:07.891Z,12.40
2019-05-07T06:09:32.972Z,11.97
2019-05-07T06:12:33.031Z,10.67
2019-05-07T06:15:33.454Z,11.23
2019-05-07T06:18:20.552Z,11.30
2019-05-07T06:21:02.989Z,10.05
2019-05-07T06:23:44.580Z,11.70
2019-05-07T06:26:17.453Z,12.77
2019-05-07T06:28:49.125Z,12.23
2019-05-07T06:31:19.302Z,10.83
2019-05-07T06:33:48.097Z,9.70
2019-05-07T06:36:16.945Z,13.93
2019-05-07T06:38:56.520Z,11.00
2019-05-07T06:41:45.297Z,14.13
2019-05-07T06:44:18.542Z,11.00
2019-05-07T06:46:48.359Z,11.37
2019-05-07T06:49:17.141Z,11.13
2019-05-07T06:51:47.806Z,8.10
2019-05-07T06:54:16.641Z,10.50
2019-05-07T06:56:48.938Z,10.10
2019-05-07T06:59:34.807Z,10.72
2019-05-07T07:02:22.565Z,10.87
2019-05-07T07:05:13.965Z,11.80
2019-05-07T07:08:02.401Z,11.00
2019-05-07T07:10:49.384Z,12.40
2019-05-07T07:13:22.258Z,12.28
2019-05-07T07:15:52.060Z,11.73
2019-05-07T07:18:22.897Z,11.35
2019-05-07T07:20:52.424Z,9.87
2019-05-07T07:23:24.618Z,12.10
2019-05-07T07:25:53.510Z,10.97
2019-05-07T07:28:24.208Z,9.57
2019-05-07T07:30:59.559Z,10.07
2019-05-07T07:33:31.968Z,9.90
2019-05-07T07:36:02.510Z,10.60
2019-05-07T07:38:35.435Z,10.93
2019-05-07T07:41:35.576Z,10.53
2019-05-07T07:44:05.470Z,11.17
2019-05-07T07:46:37.758Z,10.60
2019-05-07T07:49:11.505Z,9.50
2019-05-07T07:51:41.718Z,12.10
2019-05-07T07:54:07.898Z,10.03
2019-05-07T07:56:50.011Z,10.80
2019-05-07T07:59:32.864Z,10.03
2019-05-07T08:02:19.728Z,9.38
2019-05-07T08:04:53.008Z,11.33
2019-05-07T08:07:22.843Z,10.27
2019-05-07T08:09:52.126Z,11.23
2019-05-07T08:12:23.079Z,9.43
2019-05-07T08:14:52.126Z,9.83
2019-05-07T08:17:22.445Z,12.45
2019-05-07T08:19:52.146Z,10.53
2019-05-07T08:22:22.545Z,9.98
2019-05-07T08:24:52.053Z,9.27
2019-05-07T08:27:22.243Z,8.95
2019-05-07T08:29:52.700Z,8.57
2019-05-07T08:32:37.878Z,7.92
2019-05-07T08:35:14.805Z,8.57
2019-05-07T08:37:43.685Z,10.10
2019-05-07T08:40:13.132Z,9.23
2019-05-07T08:42:42.116Z,8.17
2019-05-07T08:45:32.604Z,10.27
2019-05-07T08:48:06.569Z,9.13
2019-05-07T08:50:36.532Z,10.57
2019-05-07T08:53:05.414Z,11.30
2019-05-07T08:55:34.361Z,8.23
2019-05-07T08:58:03.318Z,7.17
2019-05-07T09:00:32.606Z,10.83
2019-05-07T09:03:01.784Z,5.83
2019-05-07T09:05:32.319Z,7.60
2019-05-07T09:08:04.044Z,8.53
2019-05-07T09:10:32.932Z,8.37
2019-05-07T09:13:02.769Z,6.72
2019-05-07T09:15:43.172Z,9.63
2019-05-07T09:18:19.026Z,7.00
2019-05-07T09:20:47.803Z,9.57
2019-05-07T09:23:16.698Z,6.87
2019-05-07T09:25:55.879Z,8.47
2019-05-07T09:28:26.725Z,6.97
2019-05-07T09:31:02.286Z,6.10
2019-05-07T09:33:37.447Z,6.53
2019-05-07T09:36:12.042Z,5.10
2019-05-07T09:38:41.851Z,7.03
2019-05-07T09:41:26.721Z,8.43
2019-05-07T09:43:59.804Z,7.97
2019-05-07T09:46:28.771Z,7.58
2019-05-07T09:48:57.678Z,6.13
2019-05-07T09:51:27.767Z,8.35
2019-05-07T09:53:56.725Z,6.43
2019-05-07T09:56:25.701Z,8.63
2019-05-07T09:58:54.664Z,6.90
2019-05-07T10:01:23.773Z,6.17
2019-05-07T10:03:55.734Z,7.03
2019-05-07T10:06:25.598Z,5.62
2019-05-07T10:08:55.566Z,8.50
2019-05-07T10:11:32.905Z,5.25
2019-05-07T10:14:06.175Z,6.60
2019-05-07T10:16:42.002Z,10.70
2019-05-07T10:19:12.293Z,7.00
2019-05-07T10:21:42.549Z,8.20
2019-05-07T10:24:14.531Z,6.90
2019-05-07T10:26:43.458Z,8.23
2019-05-07T10:29:12.677Z,7.80
2019-05-07T10:31:42.472Z,9.73
2019-05-07T10:34:14.506Z,6.77
2019-05-07T10:36:44.765Z,6.28
2019-05-07T10:39:13.814Z,6.60
2019-05-07T10:41:44.111Z,5.57
2019-05-07T10:44:20.365Z,7.92
2019-05-07T10:47:07.323Z,7.07
2019-05-07T10:49:42.268Z,7.17
2019-05-07T10:52:12.594Z,8.63
2019-05-07T10:54:41.722Z,8.40
2019-05-07T10:57:11.953Z,5.10
2019-05-07T10:59:42.215Z,7.83
2019-05-07T11:02:21.946Z,5.60
2019-05-07T11:04:53.079Z,4.80
2019-05-07T11:07:22.257Z,8.78
2019-05-07T11:09:55.574Z,5.47
2019-05-07T11:12:23.930Z,6.40
2019-05-07T11:14:56.273Z,6.10
2019-05-07T11:17:41.898Z,6.50
2019-05-07T11:20:12.250Z,4.70
2019-05-07T11:22:44.392Z,6.87
2019-05-07T11:25:13.511Z,5.77
2019-05-07T11:27:42.697Z,5.87
2019-05-07T11:30:12.647Z,5.47
2019-05-07T11:32:43.937Z,5.30
2019-05-07T11:35:14.691Z,5.43
2019-05-07T11:37:44.398Z,4.50
2019-05-07T11:40:15.549Z,5.30
2019-05-07T11:43:02.314Z,4.47
2019-05-07T11:45:35.818Z,7.50
2019-05-07T11:48:04.913Z,4.53
2019-05-07T11:50:39.521Z,4.83
2019-05-07T11:53:09.932Z,5.92
2019-05-07T11:55:38.819Z,4.33
2019-05-07T11:58:12.869Z,6.37
2019-05-07T12:00:53.316Z,3.90
2019-05-07T12:03:22.203Z,5.17
2019-05-07T12:05:52.686Z,4.93
2019-05-07T12:08:23.715Z,4.47
2019-05-07T12:10:52.477Z,4.93
2019-05-07T12:13:21.776Z,5.15
2019-05-07T12:15:52.195Z,4.50
2019-05-07T12:18:23.289Z,4.30
2019-05-07T12:20:54.114Z,7.53
2019-05-07T12:23:22.865Z,6.65
2019-05-07T12:25:52.910Z,4.37
2019-05-07T12:28:22.504Z,5.20
2019-05-07T12:31:22.427Z,7.97
2019-05-07T12:34:04.732Z,5.33
2019-05-07T12:36:33.629Z,6.47
2019-05-07T12:39:04.113Z,5.77
2019-05-07T12:41:34.220Z,6.10
2019-05-07T12:44:06.533Z,5.83
2019-05-07T12:46:36.322Z,5.67
2019-05-07T12:49:05.858Z,5.50
2019-05-07T12:51:52.089Z,3.10
2019-05-07T12:54:36.727Z,4.10
2019-05-07T12:57:05.858Z,5.23
2019-05-07T12:59:34.747Z,4.23
2019-05-07T13:02:26.843Z,6.27
2019-05-07T13:04:42.573Z,4.37
2019-05-07T13:07:16.486Z,3.20
2019-05-07T13:09:45.403Z,2.97
2019-05-07T13:12:14.377Z,4.97
2019-05-07T13:14:43.190Z,5.40
2019-05-07T13:17:12.184Z,4.03
2019-05-07T13:19:42.012Z,3.60
2019-05-07T13:22:13.149Z,4.97
2019-05-07T13:24:42.616Z,4.23
2019-05-07T13:27:14.067Z,5.30
2019-05-07T13:29:44.919Z,2.87
2019-05-07T13:32:15.163Z,2.98
2019-05-07T13:34:44.958Z,7.43
2019-05-07T13:37:21.873Z,3.30
2019-05-07T13:40:02.551Z,5.97
2019-05-07T13:42:41.970Z,6.50
2019-05-07T13:45:31.888Z,5.23
2019-05-07T13:48:16.469Z,3.47
2019-05-07T13:50:45.698Z,4.00
2019-05-07T13:53:18.097Z,3.50
2019-05-07T13:55:49.588Z,3.97
2019-05-07T13:58:18.104Z,2.87
2019-05-07T14:01:06.152Z,5.92
2019-05-07T14:03:35.040Z,3.60
2019-05-07T14:06:05.339Z,7.23
2019-05-07T14:08:39.079Z,2.72
2019-05-07T14:11:08.180Z,5.10
2019-05-07T14:13:38.264Z,4.33
2019-05-07T14:16:08.695Z,4.17
2019-05-07T14:18:39.204Z,2.60
2019-05-07T14:21:08.775Z,3.80
2019-05-07T14:23:40.156Z,3.93
2019-05-07T14:26:09.042Z,3.53
2019-05-07T14:28:42.146Z,2.83
2019-05-07T14:31:12.496Z,2.97
2019-05-07T14:33:47.591Z,3.30
2019-05-07T14:36:23.725Z,2.50
2019-05-07T14:38:53.938Z,4.90
2019-05-07T14:41:25.809Z,3.07
2019-05-07T14:44:06.023Z,3.00
2019-05-07T14:46:44.556Z,4.03
2019-05-07T14:49:06.826Z,3.13
2019-05-07T14:51:37.628Z,3.53
2019-05-07T14:54:07.007Z,4.60
2019-05-07T14:56:36.427Z,2.90
2019-05-07T14:59:05.465Z,3.97
2019-05-07T15:01:34.463Z,4.10
2019-05-07T15:04:03.559Z,2.20
2019-05-07T15:06:32.667Z,3.55
2019-05-07T15:09:11.948Z,3.43
2019-05-07T15:11:42.539Z,3.67
2019-05-07T15:14:12.076Z,3.70
2019-05-07T15:16:42.631Z,5.53
2019-05-07T15:19:12.442Z,5.10
2019-05-07T15:21:42.581Z,3.25
2019-05-07T15:24:14.045Z,3.63
2019-05-07T15:26:42.923Z,8.30
2019-05-07T15:29:14.934Z,3.37
2019-05-07T15:32:00.232Z,7.47
2019-05-07T15:34:29.218Z,2.93
2019-05-07T15:37:01.569Z,4.90
2019-05-07T15:39:32.872Z,3.83
2019-05-07T15:42:03.500Z,4.55
2019-05-07T15:44:34.110Z,3.07
2019-05-07T15:47:07.702Z,3.95
2019-05-07T15:49:36.630Z,2.40
2019-05-07T15:52:14.681Z,3.20
2019-05-07T15:54:45.379Z,3.33
2019-05-07T15:57:17.336Z,4.92
2019-05-07T15:59:46.150Z,3.53
2019-05-07T16:02:26.453Z,3.45
2019-05-07T16:04:56.866Z,4.47
2019-05-07T16:07:28.658Z,3.27
2019-05-07T16:09:57.508Z,4.80
2019-05-07T16:12:26.383Z,4.28
2019-05-07T16:14:55.201Z,4.67
2019-05-07T16:17:29.677Z,5.97
2019-05-07T16:20:00.024Z,5.30
2019-05-07T16:22:33.725Z,3.12
2019-05-07T16:25:06.837Z,5.23
2019-05-07T16:27:34.906Z,3.67
2019-05-07T16:30:04.116Z,2.60
2019-05-07T16:32:33.006Z,6.97
2019-05-07T16:35:05.632Z,3.20
2019-05-07T16:37:34.265Z,3.13
2019-05-07T16:40:04.660Z,3.80
2019-05-07T16:42:34.461Z,7.20
2019-05-07T16:48:25.947Z,3.10
2019-05-07T16:50:57.867Z,4.25
2019-05-07T16:53:30.084Z,3.50
2019-05-07T16:56:00.093Z,6.90
2019-05-07T17:41:22.182Z,3.30
2019-05-07T17:43:46.513Z,4.67
2019-05-07T17:46:15.299Z,5.13
2019-05-07T17:48:44.074Z,3.77
2019-05-07T17:51:32.365Z,5.07
2019-05-07T17:54:01.374Z,5.60
2019-05-07T17:56:31.918Z,3.47
2019-05-07T17:59:02.857Z,3.57
2019-05-07T18:01:39.448Z,4.60
2019-05-07T18:04:08.399Z,3.80
2019-05-07T18:06:37.211Z,5.70
2019-05-07T18:09:06.438Z,3.47
2019-05-07T18:11:35.296Z,3.43
2019-05-07T18:14:04.639Z,2.87
2019-05-07T18:16:49.924Z,3.60
2019-05-07T18:19:19.034Z,5.90
2019-05-07T18:22:06.095Z,3.27
2019-05-07T18:24:34.994Z,3.97
2019-05-07T18:27:05.689Z,5.00
2019-05-07T18:29:34.563Z,2.80
2019-05-07T18:32:07.251Z,8.77
2019-05-07T18:34:36.135Z,2.57
2019-05-07T18:37:05.120Z,3.50
2019-05-07T18:39:34.025Z,4.10
2019-05-07T18:42:02.933Z,3.97
2019-05-07T18:44:31.742Z,3.58
2019-05-07T18:47:02.332Z,5.43
2019-05-07T18:49:31.118Z,5.08
2019-05-07T18:51:59.928Z,6.77
2019-05-07T18:54:31.226Z,6.07
2019-05-07T18:56:59.445Z,6.47
2019-05-07T18:59:31.831Z,4.08
2019-05-07T19:02:02.306Z,3.30
2019-05-07T19:04:32.885Z,5.42
2019-05-07T19:07:02.570Z,4.60
2019-05-07T19:09:32.074Z,5.43
2019-05-07T19:12:55.120Z,4.60
2019-05-07T19:15:24.109Z,3.07
2019-05-07T19:17:53.047Z,3.30
2019-05-07T19:20:21.890Z,5.57
2019-05-07T19:22:51.874Z,4.07
2019-05-07T19:25:20.979Z,3.67
2019-05-07T19:27:49.801Z,3.23
2019-05-07T19:30:18.859Z,3.47
2019-05-07T19:32:47.725Z,6.87
2019-05-07T19:35:16.980Z,3.87
2019-05-07T19:37:45.926Z,6.33
2019-05-07T19:40:14.870Z,2.72
2019-05-07T19:42:43.683Z,3.63
2019-05-07T19:45:12.825Z,5.50
2019-05-07T19:47:42.779Z,2.87
2019-05-07T19:50:12.710Z,3.77
2019-05-07T19:52:42.633Z,2.83
2019-05-07T19:55:13.110Z,4.63
2019-05-07T19:57:47.863Z,3.67
2019-05-07T20:00:17.693Z,5.07
2019-05-07T20:02:49.747Z,4.97
2019-05-07T20:05:19.129Z,4.47
2019-05-07T20:07:47.961Z,3.87
2019-05-07T20:10:22.323Z,3.43
2019-05-07T20:12:52.164Z,4.63
2019-05-07T20:15:22.380Z,4.73
2019-05-07T20:17:52.635Z,3.47
2019-05-07T20:20:22.164Z,4.23
2019-05-07T20:22:51.812Z,3.72
2019-05-07T20:25:22.557Z,4.17
2019-05-07T20:27:52.707Z,3.87
2019-05-07T20:30:22.855Z,5.00
2019-05-07T20:32:52.358Z,3.05
2019-05-07T20:35:21.605Z,5.20
2019-05-07T20:37:52.101Z,7.07
2019-05-07T20:40:22.720Z,3.33
2019-05-07T20:42:52.444Z,4.97
2019-05-07T20:45:23.749Z,4.97
2019-05-07T20:47:52.800Z,4.87
2019-05-07T20:50:22.246Z,5.30
2019-05-07T20:52:52.396Z,10.37
2019-05-07T20:55:43.947Z,5.37
2019-05-07T20:58:12.963Z,5.47
2019-05-07T21:00:43.411Z,3.50
2019-05-07T21:03:23.744Z,7.80
2019-05-07T21:05:53.403Z,9.60
2019-05-07T21:08:23.002Z,5.40
2019-05-07T21:10:53.481Z,8.20
2019-05-07T21:13:32.463Z,4.93
2019-05-07T21:15:53.517Z,5.87
2019-05-07T21:18:23.392Z,7.10
2019-05-07T21:20:53.122Z,4.03
2019-05-07T21:23:23.147Z,4.77
2019-05-07T21:25:53.028Z,6.07
2019-05-07T21:28:22.202Z,4.57
2019-05-07T21:30:52.249Z,3.85
2019-05-07T21:33:22.865Z,4.50
2019-05-07T21:35:52.463Z,7.47
2019-05-07T21:38:22.379Z,5.20
2019-05-07T21:40:51.698Z,5.58
2019-05-07T21:43:22.188Z,5.43
2019-05-07T21:45:52.958Z,4.77
2019-05-07T21:48:22.550Z,5.10
2019-05-07T21:50:52.780Z,6.63
2019-05-07T21:53:27.257Z,6.67
2019-05-07T21:56:12.592Z,6.03
2019-05-07T21:58:45.377Z,4.33
2019-05-07T22:03:46.912Z,4.30
2019-05-07T22:06:15.846Z,4.87
2019-05-07T22:08:44.777Z,6.20
2019-05-07T22:11:13.657Z,5.35
2019-05-07T22:13:43.469Z,7.80
2019-05-07T22:16:13.208Z,6.67
2019-05-07T22:18:42.792Z,8.30
2019-05-07T22:21:12.384Z,5.47
2019-05-07T22:23:42.813Z,6.97
2019-05-07T22:26:23.137Z,7.85
2019-05-07T22:28:43.119Z,6.40
2019-05-07T22:31:34.178Z,5.20
2019-05-07T22:34:12.884Z,8.27
2019-05-07T22:36:43.171Z,7.67
2019-05-07T22:39:12.668Z,5.37
2019-05-07T22:41:42.491Z,5.70
2019-05-07T22:44:12.116Z,5.97
2019-05-07T22:46:42.207Z,6.20
2019-05-07T22:49:12.236Z,7.20
2019-05-07T22:51:41.351Z,7.50
2019-05-07T22:54:11.880Z,5.30
2019-05-07T22:56:58.762Z,4.72
2019-05-07T22:59:27.601Z,4.47
2019-05-07T23:01:56.480Z,6.57
2019-05-07T23:04:25.314Z,6.95
2019-05-07T23:06:54.229Z,6.57
2019-05-07T23:09:23.423Z,7.67
2019-05-07T23:11:54.805Z,5.63
2019-05-07T23:14:22.883Z,7.47
2019-05-07T23:16:52.553Z,6.73
2019-05-07T23:19:22.384Z,5.63
2019-05-07T23:21:52.441Z,8.03
2019-05-07T23:24:24.462Z,8.70
2019-05-07T23:26:53.717Z,7.07
2019-05-07T23:29:22.736Z,5.57
2019-05-07T23:31:52.814Z,5.93
2019-05-07T23:34:22.497Z,6.92
2019-05-07T23:36:53.405Z,6.90
2019-05-07T23:39:23.687Z,6.65
2019-05-07T23:42:02.122Z,7.57
2019-05-07T23:44:30.545Z,6.83
2019-05-07T23:46:59.409Z,7.35
2019-05-07T23:49:28.193Z,7.92
2019-05-07T23:51:57.005Z,8.77
2019-05-07T23:54:25.782Z,7.03
2019-05-07T23:57:05.811Z,8.53
2019-05-07T23:59:25.116Z,8.53
